DAL2177 KEYW-KTPA
Flight info
| Callsign | DAL2177 |
|---|---|
| Flight time | 0h 46m |
| Altitude | 34000 |
| Route | BUFTT1 GUFFS FERAL BLFRG3 |
| Aircraft | A319/M-SDE3FGHIRWY/LB1 |
Departure
| Time | 2026-04-30 01:24 |
|---|---|
| Airport | Key West International Airport (KEYW) |
Arrival
| Time | 2026-04-30 02:11 |
|---|---|
| Airport | Tampa International Airport (KTPA) |
| Time | Latitude | Longitude | Altitude | Speed | Heading |
|---|---|---|---|---|---|
| 2026-04-30 01:09 | 24.55437 | -81.75419 | 12 ft | 0 kts | 180° |
| 2026-04-30 01:14 | 24.55438 | -81.75419 | 12 ft | 0 kts | 181° |
| 2026-04-30 01:14 | 24.55449 | -81.75419 | 14 ft | 3 kts | 176° |
| 2026-04-30 01:15 | 24.55469 | -81.75422 | 13 ft | 3 kts | 158° |
| 2026-04-30 01:15 | 24.55485 | -81.75432 | 13 ft | 3 kts | 121° |
| 2026-04-30 01:15 | 24.55489 | -81.75445 | 14 ft | 1 kts | 89° |
| 2026-04-30 01:17 | 24.55489 | -81.75444 | 14 ft | 1 kts | 89° |
| 2026-04-30 01:17 | 24.55490 | -81.75411 | 12 ft | 7 kts | 89° |
| 2026-04-30 01:18 | 24.55519 | -81.75387 | 12 ft | 6 kts | 334° |
| 2026-04-30 01:18 | 24.55530 | -81.75434 | 13 ft | 8 kts | 276° |
| 2026-04-30 01:18 | 24.55530 | -81.75518 | 12 ft | 13 kts | 269° |
| 2026-04-30 01:18 | 24.55529 | -81.75620 | 12 ft | 14 kts | 269° |
| 2026-04-30 01:19 | 24.55527 | -81.75731 | 12 ft | 15 kts | 269° |
| 2026-04-30 01:19 | 24.55526 | -81.75851 | 12 ft | 16 kts | 270° |
| 2026-04-30 01:19 | 24.55525 | -81.75980 | 12 ft | 17 kts | 269° |
| 2026-04-30 01:19 | 24.55524 | -81.76118 | 12 ft | 19 kts | 270° |
| 2026-04-30 01:20 | 24.55523 | -81.76266 | 12 ft | 20 kts | 269° |
| 2026-04-30 01:20 | 24.55522 | -81.76418 | 12 ft | 21 kts | 269° |
| 2026-04-30 01:20 | 24.55520 | -81.76577 | 12 ft | 19 kts | 269° |
| 2026-04-30 01:20 | 24.55521 | -81.76619 | 12 ft | 0 kts | 279° |
| 2026-04-30 01:22 | 24.55523 | -81.76625 | 12 ft | 4 kts | 285° |
| 2026-04-30 01:23 | 24.55589 | -81.76656 | 11 ft | 14 kts | 6° |
| 2026-04-30 01:23 | 24.55606 | -81.76616 | 11 ft | 0 kts | 97° |
| 2026-04-30 01:23 | 24.55606 | -81.76611 | 11 ft | 1 kts | 89° |
| 2026-04-30 01:23 | 24.55607 | -81.76529 | 11 ft | 40 kts | 89° |
| 2026-04-30 01:24 | 24.55614 | -81.75929 | 12 ft | 114 kts | 89° |
| 2026-04-30 01:24 | 24.55624 | -81.74862 | 228 ft | 149 kts | 90° |
| 2026-04-30 01:24 | 24.55743 | -81.73743 | 929 ft | 148 kts | 67° |
| 2026-04-30 01:24 | 24.56396 | -81.72882 | 1589 ft | 149 kts | 33° |
| 2026-04-30 01:25 | 24.57419 | -81.72514 | 2091 ft | 167 kts | 4° |
| 2026-04-30 01:25 | 24.58657 | -81.72470 | 2476 ft | 190 kts | 2° |
| 2026-04-30 01:25 | 24.60059 | -81.72415 | 2853 ft | 213 kts | 2° |
| 2026-04-30 01:25 | 24.61605 | -81.72351 | 3281 ft | 233 kts | 2° |
| 2026-04-30 01:26 | 24.63301 | -81.72276 | 3813 ft | 255 kts | 3° |
| 2026-04-30 01:26 | 24.65134 | -81.72190 | 4585 ft | 269 kts | 3° |
| 2026-04-30 01:26 | 24.67019 | -81.72099 | 5532 ft | 274 kts | 3° |
| 2026-04-30 01:26 | 24.68932 | -81.72004 | 6518 ft | 277 kts | 4° |
| 2026-04-30 01:27 | 24.70851 | -81.71743 | 7414 ft | 279 kts | 15° |
| 2026-04-30 01:27 | 24.72643 | -81.70917 | 8322 ft | 281 kts | 32° |
| 2026-04-30 01:27 | 24.74158 | -81.69558 | 9242 ft | 283 kts | 46° |
| 2026-04-30 01:27 | 24.75509 | -81.67966 | 10143 ft | 286 kts | 46° |
| 2026-04-30 01:28 | 24.76914 | -81.66313 | 10547 ft | 307 kts | 46° |
| 2026-04-30 01:28 | 24.78403 | -81.64568 | 10952 ft | 325 kts | 46° |
| 2026-04-30 01:28 | 24.79994 | -81.62708 | 11644 ft | 332 kts | 46° |
| 2026-04-30 01:28 | 24.81591 | -81.60856 | 12415 ft | 336 kts | 44° |
| 2026-04-30 01:29 | 24.82765 | -81.59746 | 12917 ft | 338 kts | 35° |
| 2026-04-30 01:29 | 24.84806 | -81.58444 | 13707 ft | 340 kts | 22° |
| 2026-04-30 01:29 | 24.87046 | -81.57582 | 14418 ft | 343 kts | 17° |
| 2026-04-30 01:29 | 24.90075 | -81.56507 | 15352 ft | 347 kts | 17° |
| 2026-04-30 01:30 | 24.92383 | -81.55681 | 16069 ft | 350 kts | 17° |
| 2026-04-30 01:30 | 24.94710 | -81.54841 | 16770 ft | 354 kts | 17° |
| 2026-04-30 01:30 | 24.96294 | -81.54267 | 17244 ft | 356 kts | 17° |
| 2026-04-30 01:30 | 24.98661 | -81.53408 | 17949 ft | 359 kts | 17° |
| 2026-04-30 01:31 | 25.01049 | -81.52543 | 18605 ft | 363 kts | 17° |
| 2026-04-30 01:31 | 25.03421 | -81.51685 | 19212 ft | 365 kts | 16° |
| 2026-04-30 01:31 | 25.05851 | -81.50807 | 19836 ft | 368 kts | 16° |
| 2026-04-30 01:31 | 25.08294 | -81.49921 | 20450 ft | 371 kts | 16° |
| 2026-04-30 01:32 | 25.10754 | -81.49030 | 21077 ft | 374 kts | 15° |
| 2026-04-30 01:32 | 25.13240 | -81.48130 | 21692 ft | 377 kts | 15° |
| 2026-04-30 01:32 | 25.15744 | -81.47221 | 22301 ft | 380 kts | 15° |
| 2026-04-30 01:32 | 25.18261 | -81.46307 | 22911 ft | 383 kts | 15° |
| 2026-04-30 01:33 | 25.20799 | -81.45387 | 23505 ft | 385 kts | 14° |
| 2026-04-30 01:33 | 25.23353 | -81.44464 | 24002 ft | 388 kts | 14° |
| 2026-04-30 01:33 | 25.25926 | -81.43533 | 24481 ft | 390 kts | 14° |
| 2026-04-30 01:33 | 25.28515 | -81.42593 | 24949 ft | 393 kts | 14° |
| 2026-04-30 01:34 | 25.31120 | -81.41646 | 25410 ft | 395 kts | 14° |
| 2026-04-30 01:34 | 25.33737 | -81.40694 | 25865 ft | 397 kts | 14° |
| 2026-04-30 01:34 | 25.36370 | -81.39735 | 26315 ft | 400 kts | 14° |
| 2026-04-30 01:34 | 25.39025 | -81.38765 | 26758 ft | 402 kts | 14° |
| 2026-04-30 01:35 | 25.41692 | -81.37790 | 27193 ft | 405 kts | 14° |
| 2026-04-30 01:35 | 25.44394 | -81.36929 | 27626 ft | 404 kts | 7° |
| 2026-04-30 01:35 | 25.47174 | -81.36653 | 28052 ft | 401 kts | 356° |
| 2026-04-30 01:35 | 25.49946 | -81.37015 | 28479 ft | 400 kts | 345° |
| 2026-04-30 01:36 | 25.52577 | -81.37992 | 28890 ft | 401 kts | 334° |
| 2026-04-30 01:36 | 25.54979 | -81.39488 | 29312 ft | 402 kts | 328° |
| 2026-04-30 01:36 | 25.57368 | -81.41127 | 29737 ft | 404 kts | 328° |
| 2026-04-30 01:36 | 25.59766 | -81.42772 | 30133 ft | 406 kts | 328° |
| 2026-04-30 01:37 | 25.62180 | -81.44421 | 30460 ft | 409 kts | 328° |
| 2026-04-30 01:37 | 25.64609 | -81.46078 | 30765 ft | 411 kts | 328° |
| 2026-04-30 01:37 | 25.67053 | -81.47752 | 31066 ft | 414 kts | 328° |
| 2026-04-30 01:37 | 25.69514 | -81.49446 | 31356 ft | 417 kts | 328° |
| 2026-04-30 01:38 | 25.71983 | -81.51145 | 31658 ft | 419 kts | 328° |
| 2026-04-30 01:38 | 25.74470 | -81.52858 | 31952 ft | 422 kts | 328° |
| 2026-04-30 01:38 | 25.76973 | -81.54579 | 32239 ft | 424 kts | 328° |
| 2026-04-30 01:38 | 25.79488 | -81.56304 | 32615 ft | 424 kts | 328° |
| 2026-04-30 01:39 | 25.81993 | -81.58030 | 33028 ft | 424 kts | 328° |
| 2026-04-30 01:39 | 25.84500 | -81.59761 | 33425 ft | 424 kts | 328° |
| 2026-04-30 01:39 | 25.87034 | -81.61429 | 33829 ft | 423 kts | 333° |
| 2026-04-30 01:39 | 25.89759 | -81.62669 | 33990 ft | 423 kts | 342° |
| 2026-04-30 01:40 | 25.95413 | -81.64065 | 34016 ft | 412 kts | 347° |
| 2026-04-30 01:40 | 26.00964 | -81.65348 | 34017 ft | 408 kts | 347° |
| 2026-04-30 01:41 | 26.06529 | -81.66638 | 33998 ft | 409 kts | 347° |
| 2026-04-30 01:41 | 26.12110 | -81.67935 | 33998 ft | 410 kts | 347° |
| 2026-04-30 01:42 | 26.17692 | -81.69238 | 34002 ft | 410 kts | 347° |
| 2026-04-30 01:42 | 26.23269 | -81.70545 | 33995 ft | 409 kts | 347° |
| 2026-04-30 01:43 | 26.28843 | -81.71843 | 33993 ft | 410 kts | 347° |
| 2026-04-30 01:43 | 26.34416 | -81.73142 | 33993 ft | 409 kts | 347° |
| 2026-04-30 01:44 | 26.40004 | -81.74447 | 33990 ft | 409 kts | 347° |
| 2026-04-30 01:44 | 26.45580 | -81.75755 | 33990 ft | 409 kts | 347° |
| 2026-04-30 01:45 | 26.51162 | -81.77052 | 33988 ft | 410 kts | 349° |
| 2026-04-30 01:45 | 26.56833 | -81.77766 | 33989 ft | 411 kts | 352° |
| 2026-04-30 01:46 | 26.62519 | -81.78436 | 33991 ft | 411 kts | 352° |
| 2026-04-30 01:46 | 26.68197 | -81.79106 | 34003 ft | 410 kts | 353° |
| 2026-04-30 01:47 | 26.73864 | -81.79769 | 33996 ft | 409 kts | 353° |
| 2026-04-30 01:47 | 26.79532 | -81.80437 | 33999 ft | 409 kts | 353° |
| 2026-04-30 01:48 | 26.85187 | -81.81111 | 34004 ft | 409 kts | 353° |
| 2026-04-30 01:48 | 26.88029 | -81.81450 | 33874 ft | 410 kts | 353° |
| 2026-04-30 01:48 | 26.90860 | -81.81785 | 33611 ft | 410 kts | 353° |
| 2026-04-30 01:49 | 26.93702 | -81.82121 | 33355 ft | 410 kts | 353° |
| 2026-04-30 01:49 | 26.96537 | -81.82458 | 33093 ft | 411 kts | 353° |
| 2026-04-30 01:49 | 26.99390 | -81.82800 | 32842 ft | 412 kts | 353° |
| 2026-04-30 01:49 | 27.02239 | -81.83142 | 32593 ft | 412 kts | 353° |
| 2026-04-30 01:50 | 27.05057 | -81.83527 | 32074 ft | 407 kts | 348° |
| 2026-04-30 01:50 | 27.07779 | -81.84361 | 31494 ft | 403 kts | 339° |
| 2026-04-30 01:50 | 27.10306 | -81.85706 | 30898 ft | 401 kts | 329° |
| 2026-04-30 01:50 | 27.12592 | -81.87487 | 30302 ft | 399 kts | 323° |
| 2026-04-30 01:51 | 27.14807 | -81.89365 | 29665 ft | 397 kts | 323° |
| 2026-04-30 01:51 | 27.17006 | -81.91222 | 29082 ft | 393 kts | 323° |
| 2026-04-30 01:51 | 27.19184 | -81.93060 | 28512 ft | 389 kts | 323° |
| 2026-04-30 01:51 | 27.21339 | -81.94883 | 27955 ft | 385 kts | 323° |
| 2026-04-30 01:52 | 27.23471 | -81.96692 | 27404 ft | 382 kts | 323° |
| 2026-04-30 01:52 | 27.25586 | -81.98487 | 26866 ft | 379 kts | 323° |
| 2026-04-30 01:52 | 27.27682 | -82.00266 | 26329 ft | 377 kts | 323° |
| 2026-04-30 01:52 | 27.29742 | -82.02014 | 25819 ft | 374 kts | 323° |
| 2026-04-30 01:53 | 27.31818 | -82.03775 | 25314 ft | 373 kts | 323° |
| 2026-04-30 01:53 | 27.33884 | -82.05527 | 24823 ft | 371 kts | 323° |
| 2026-04-30 01:53 | 27.35937 | -82.07269 | 24331 ft | 369 kts | 323° |
| 2026-04-30 01:53 | 27.37973 | -82.09020 | 23845 ft | 367 kts | 322° |
| 2026-04-30 01:54 | 27.39963 | -82.10823 | 23330 ft | 366 kts | 321° |
| 2026-04-30 01:54 | 27.41910 | -82.12649 | 22824 ft | 363 kts | 320° |
| 2026-04-30 01:54 | 27.43824 | -82.14470 | 22358 ft | 359 kts | 320° |
| 2026-04-30 01:54 | 27.45681 | -82.16334 | 21884 ft | 356 kts | 317° |
| 2026-04-30 01:55 | 27.47460 | -82.18255 | 21410 ft | 353 kts | 316° |
| 2026-04-30 01:55 | 27.49192 | -82.20192 | 20930 ft | 350 kts | 316° |
| 2026-04-30 01:55 | 27.50903 | -82.22119 | 20444 ft | 347 kts | 316° |
| 2026-04-30 01:55 | 27.52610 | -82.24034 | 19971 ft | 345 kts | 316° |
| 2026-04-30 01:56 | 27.54312 | -82.25928 | 19489 ft | 343 kts | 316° |
| 2026-04-30 01:56 | 27.56011 | -82.27803 | 19010 ft | 341 kts | 316° |
| 2026-04-30 01:56 | 27.57708 | -82.29665 | 18530 ft | 340 kts | 316° |
| 2026-04-30 01:56 | 27.59403 | -82.31520 | 18021 ft | 339 kts | 316° |
| 2026-04-30 01:57 | 27.61088 | -82.33366 | 17529 ft | 337 kts | 316° |
| 2026-04-30 01:57 | 27.62763 | -82.35205 | 17059 ft | 334 kts | 316° |
| 2026-04-30 01:57 | 27.64421 | -82.37023 | 16605 ft | 332 kts | 316° |
| 2026-04-30 01:57 | 27.66073 | -82.38831 | 16148 ft | 330 kts | 316° |
| 2026-04-30 01:58 | 27.67829 | -82.40475 | 15696 ft | 328 kts | 327° |
| 2026-04-30 01:58 | 27.69877 | -82.41602 | 15254 ft | 328 kts | 340° |
| 2026-04-30 01:58 | 27.72110 | -82.42136 | 14803 ft | 330 kts | 353° |
| 2026-04-30 01:58 | 27.74410 | -82.42137 | 14350 ft | 331 kts | 359° |
| 2026-04-30 01:59 | 27.79008 | -82.42022 | 13396 ft | 330 kts | 359° |
| 2026-04-30 01:59 | 27.81270 | -82.41968 | 12929 ft | 328 kts | 359° |
| 2026-04-30 01:59 | 27.83547 | -82.41913 | 12463 ft | 326 kts | 359° |
| 2026-04-30 02:00 | 27.85810 | -82.41858 | 11992 ft | 325 kts | 359° |
| 2026-04-30 02:00 | 27.88065 | -82.41805 | 11525 ft | 323 kts | 359° |
| 2026-04-30 02:00 | 27.90312 | -82.41752 | 11045 ft | 322 kts | 359° |
| 2026-04-30 02:00 | 27.92554 | -82.41696 | 10569 ft | 321 kts | 360° |
| 2026-04-30 02:01 | 27.94779 | -82.41637 | 10256 ft | 315 kts | 360° |
| 2026-04-30 02:01 | 27.96921 | -82.41579 | 10142 ft | 302 kts | 359° |
| 2026-04-30 02:01 | 27.98991 | -82.41525 | 9934 ft | 294 kts | 359° |
| 2026-04-30 02:01 | 28.01014 | -82.41476 | 9615 ft | 292 kts | 360° |
| 2026-04-30 02:02 | 28.03059 | -82.41432 | 9194 ft | 291 kts | 359° |
| 2026-04-30 02:02 | 28.05058 | -82.41389 | 8880 ft | 286 kts | 360° |
| 2026-04-30 02:02 | 28.07041 | -82.41342 | 8498 ft | 283 kts | 360° |
| 2026-04-30 02:02 | 28.09001 | -82.41293 | 8109 ft | 281 kts | 360° |
| 2026-04-30 02:03 | 28.10951 | -82.41243 | 7691 ft | 280 kts | 359° |
| 2026-04-30 02:03 | 28.12895 | -82.41197 | 7376 ft | 275 kts | 359° |
| 2026-04-30 02:03 | 28.14760 | -82.41153 | 7251 ft | 261 kts | 0° |
| 2026-04-30 02:03 | 28.16514 | -82.41108 | 7139 ft | 243 kts | 359° |
| 2026-04-30 02:04 | 28.18170 | -82.41065 | 7028 ft | 233 kts | 359° |
| 2026-04-30 02:04 | 28.19753 | -82.41060 | 6901 ft | 222 kts | 352° |
| 2026-04-30 02:04 | 28.21077 | -82.41778 | 6672 ft | 211 kts | 309° |
| 2026-04-30 02:04 | 28.21562 | -82.43290 | 6383 ft | 207 kts | 265° |
| 2026-04-30 02:05 | 28.21086 | -82.44828 | 6027 ft | 210 kts | 240° |
| 2026-04-30 02:05 | 28.20277 | -82.46214 | 5716 ft | 211 kts | 234° |
| 2026-04-30 02:05 | 28.19412 | -82.47555 | 5332 ft | 210 kts | 232° |
| 2026-04-30 02:05 | 28.18572 | -82.48871 | 4913 ft | 208 kts | 233° |
| 2026-04-30 02:06 | 28.17748 | -82.50197 | 4659 ft | 200 kts | 233° |
| 2026-04-30 02:06 | 28.16990 | -82.51457 | 4459 ft | 190 kts | 233° |
| 2026-04-30 02:06 | 28.16201 | -82.52661 | 4015 ft | 192 kts | 221° |
| 2026-04-30 02:06 | 28.15075 | -82.53447 | 3574 ft | 190 kts | 198° |
| 2026-04-30 02:07 | 28.13773 | -82.53643 | 3078 ft | 189 kts | 183° |
| 2026-04-30 02:07 | 28.12465 | -82.53686 | 2631 ft | 186 kts | 184° |
| 2026-04-30 02:07 | 28.11208 | -82.53728 | 2318 ft | 175 kts | 185° |
| 2026-04-30 02:07 | 28.10047 | -82.53766 | 2082 ft | 161 kts | 186° |
| 2026-04-30 02:08 | 28.08979 | -82.53802 | 1888 ft | 146 kts | 187° |
| 2026-04-30 02:08 | 28.08004 | -82.53836 | 1699 ft | 136 kts | 187° |
| 2026-04-30 02:08 | 28.07068 | -82.53869 | 1526 ft | 134 kts | 187° |
| 2026-04-30 02:08 | 28.06147 | -82.53901 | 1352 ft | 132 kts | 187° |
| 2026-04-30 02:09 | 28.05232 | -82.53932 | 1183 ft | 131 kts | 186° |
| 2026-04-30 02:09 | 28.04305 | -82.53964 | 1017 ft | 134 kts | 185° |
| 2026-04-30 02:09 | 28.03390 | -82.53996 | 848 ft | 131 kts | 185° |
| 2026-04-30 02:09 | 28.02481 | -82.54027 | 683 ft | 132 kts | 185° |
| 2026-04-30 02:10 | 28.01565 | -82.54057 | 526 ft | 131 kts | 185° |
| 2026-04-30 02:10 | 28.00653 | -82.54089 | 325 ft | 130 kts | 185° |
| 2026-04-30 02:10 | 27.99755 | -82.54120 | 175 ft | 128 kts | 186° |
| 2026-04-30 02:10 | 27.98883 | -82.54146 | 52 ft | 115 kts | 184° |
| 2026-04-30 02:11 | 27.98224 | -82.54172 | 50 ft | 71 kts | 182° |
| 2026-04-30 02:11 | 27.97873 | -82.54185 | 48 ft | 39 kts | 182° |
| 2026-04-30 02:11 | 27.97725 | -82.54143 | 47 ft | 12 kts | 143° |
| 2026-04-30 02:11 | 27.97709 | -82.54092 | 47 ft | 0 kts | 73° |
| 2026-04-30 02:12 | 27.97712 | -82.54086 | 43 ft | 3 kts | 57° |
| 2026-04-30 02:12 | 27.97743 | -82.54067 | 47 ft | 13 kts | 18° |
| 2026-04-30 02:12 | 27.97846 | -82.54044 | 47 ft | 16 kts | 54° |
| 2026-04-30 02:13 | 27.97921 | -82.53975 | 46 ft | 16 kts | 359° |
| 2026-04-30 02:13 | 27.97959 | -82.53905 | 44 ft | 12 kts | 91° |
| 2026-04-30 02:13 | 27.97958 | -82.53877 | 43 ft | 0 kts | 92° |